createdAt,value
2023-04-12T00:01:31.807Z,4.52
2023-04-12T00:04:03.576Z,4.47
2023-04-12T00:06:33.290Z,4.44
2023-04-12T00:09:01.220Z,4.34
2023-04-12T00:11:29.581Z,4.21
2023-04-12T00:13:57.459Z,4.18
2023-04-12T00:16:25.450Z,4.13
2023-04-12T00:18:53.214Z,4.14
2023-04-12T00:21:23.797Z,4.12
2023-04-12T00:23:51.535Z,4.11
2023-04-12T00:26:19.192Z,4.02
2023-04-12T00:28:46.954Z,4.05
2023-04-12T00:31:14.776Z,4.13
2023-04-12T00:33:42.630Z,4.12
2023-04-12T00:36:10.737Z,4.13
2023-04-12T00:38:40.238Z,4.05
2023-04-12T00:41:08.314Z,3.97
2023-04-12T00:43:35.977Z,4.06
2023-04-12T00:46:04.004Z,3.99
2023-04-12T00:48:32.455Z,3.98
2023-04-12T00:51:01.726Z,3.90
2023-04-12T00:53:29.612Z,3.84
2023-04-12T00:55:59.585Z,3.73
2023-04-12T00:58:27.261Z,3.63
2023-04-12T01:00:54.976Z,3.55
2023-04-12T01:03:24.856Z,3.41
2023-04-12T01:06:04.415Z,3.38
2023-04-12T01:08:41.039Z,3.44
2023-04-12T01:11:19.082Z,3.33
2023-04-12T01:13:54.055Z,3.50
2023-04-12T01:16:29.632Z,3.39
2023-04-12T01:19:03.953Z,3.38
2023-04-12T01:21:42.283Z,3.62
2023-04-12T01:24:24.641Z,3.48
2023-04-12T01:26:57.629Z,3.31
2023-04-12T01:29:28.469Z,3.27
2023-04-12T01:32:16.450Z,3.25
2023-04-12T01:34:45.432Z,3.23
2023-04-12T01:37:14.152Z,3.27
2023-04-12T01:39:42.020Z,3.27
2023-04-12T01:42:09.631Z,3.19
2023-04-12T01:44:38.729Z,3.08
2023-04-12T01:47:06.530Z,3.09
2023-04-12T01:49:42.476Z,3.10
2023-04-12T01:52:13.911Z,3.05
2023-04-12T01:54:45.612Z,2.97
2023-04-12T01:57:14.420Z,2.96
2023-04-12T01:59:45.369Z,2.87
2023-04-12T02:02:14.045Z,2.81
2023-04-12T02:04:43.201Z,2.81
2023-04-12T02:07:11.382Z,2.93
2023-04-12T02:09:39.826Z,3.00
2023-04-12T02:12:08.443Z,3.01
2023-04-12T02:14:36.748Z,3.03
2023-04-12T02:17:05.897Z,3.00
2023-04-12T02:19:33.582Z,2.94
2023-04-12T02:22:02.216Z,2.87
2023-04-12T02:24:29.970Z,2.80
2023-04-12T02:26:59.699Z,2.72
2023-04-12T02:29:27.364Z,2.79
2023-04-12T02:31:55.066Z,2.80
2023-04-12T02:34:24.278Z,2.70
2023-04-12T02:36:52.095Z,2.57
2023-04-12T02:39:22.167Z,2.67
2023-04-12T02:41:50.441Z,2.78
2023-04-12T02:44:18.094Z,2.80
2023-04-12T02:46:45.741Z,2.76
2023-04-12T02:49:13.412Z,2.73
2023-04-12T02:51:42.736Z,2.71
2023-04-12T02:54:10.400Z,2.76
2023-04-12T02:56:38.074Z,2.83
2023-04-12T02:59:06.818Z,2.81
2023-04-12T03:01:34.728Z,2.66
2023-04-12T03:04:02.879Z,2.53
2023-04-12T03:06:36.821Z,2.60
2023-04-12T03:09:06.652Z,2.61
2023-04-12T03:11:34.315Z,2.64
2023-04-12T03:14:01.985Z,2.68
2023-04-12T03:16:30.117Z,2.58
2023-04-12T03:18:58.028Z,2.60
2023-04-12T03:21:25.939Z,2.50
2023-04-12T03:23:53.558Z,2.36
2023-04-12T03:26:22.558Z,2.28
2023-04-12T03:28:50.411Z,2.31
2023-04-12T03:31:20.847Z,2.35
2023-04-12T03:33:48.486Z,2.25
2023-04-12T03:36:16.291Z,2.14
2023-04-12T03:38:44.097Z,2.13
2023-04-12T03:41:11.784Z,2.18
2023-04-12T03:43:42.511Z,2.19
2023-04-12T03:46:10.283Z,2.22
2023-04-12T03:48:38.044Z,2.23
2023-04-12T03:51:08.308Z,2.18
2023-04-12T03:53:36.143Z,2.15
2023-04-12T03:56:03.812Z,2.15
2023-04-12T03:58:33.777Z,2.05
2023-04-12T04:01:06.075Z,1.99
2023-04-12T04:03:34.923Z,2.02
2023-04-12T04:06:03.438Z,2.00
2023-04-12T04:08:32.486Z,2.00
2023-04-12T04:11:01.190Z,1.98
2023-04-12T04:13:28.834Z,2.04
2023-04-12T04:16:04.298Z,1.95
2023-04-12T04:18:32.574Z,1.84
2023-04-12T04:21:00.393Z,1.82
2023-04-12T04:23:29.114Z,1.81
2023-04-12T04:25:57.391Z,1.85
2023-04-12T04:28:25.256Z,1.94
2023-04-12T04:30:55.688Z,1.98
2023-04-12T04:33:24.513Z,1.98
2023-04-12T04:35:52.670Z,1.98
2023-04-12T04:38:20.641Z,1.95
2023-04-12T04:40:53.223Z,1.94
2023-04-12T04:43:21.181Z,1.86
2023-04-12T04:45:49.728Z,1.76
2023-04-12T04:48:18.700Z,1.67
2023-04-12T04:50:48.114Z,1.63
2023-04-12T04:53:19.141Z,1.67
2023-04-12T04:55:47.780Z,1.74
2023-04-12T04:58:17.338Z,1.80
2023-04-12T05:00:45.985Z,1.80
2023-04-12T05:03:13.769Z,1.76
2023-04-12T05:05:41.485Z,1.72
2023-04-12T05:08:10.788Z,1.82
2023-04-12T05:10:38.490Z,1.91
2023-04-12T05:13:06.135Z,1.96
2023-04-12T05:15:33.846Z,2.00
2023-04-12T05:18:01.737Z,2.06
2023-04-12T05:20:29.555Z,2.02
2023-04-12T05:22:57.223Z,2.09
2023-04-12T05:25:26.320Z,2.20
2023-04-12T05:27:53.958Z,2.28
2023-04-12T05:30:21.697Z,2.42
2023-04-12T05:32:49.383Z,2.51
2023-04-12T05:35:17.308Z,2.53
2023-04-12T05:37:45.015Z,2.65
2023-04-12T05:40:13.458Z,2.67
2023-04-12T05:42:42.468Z,2.73
2023-04-12T05:45:11.583Z,2.88
2023-04-12T05:47:39.316Z,2.96
2023-04-12T05:50:08.382Z,3.04
2023-04-12T05:52:37.449Z,3.09
2023-04-12T05:55:05.840Z,3.18
2023-04-12T05:57:33.699Z,3.26
2023-04-12T06:00:06.547Z,3.31
2023-04-12T06:02:34.622Z,3.48
2023-04-12T06:05:03.722Z,3.54
2023-04-12T06:07:31.573Z,3.62
2023-04-12T06:09:59.210Z,3.65
2023-04-12T06:12:27.003Z,3.70
2023-04-12T06:14:55.801Z,3.78
2023-04-12T06:17:24.996Z,3.86
2023-04-12T06:19:52.836Z,3.88
2023-04-12T06:22:20.545Z,3.98
2023-04-12T06:24:48.193Z,4.04
2023-04-12T06:27:15.866Z,4.15
2023-04-12T06:29:43.521Z,4.18
2023-04-12T06:32:11.202Z,4.22
2023-04-12T06:34:40.197Z,4.36
2023-04-12T06:37:07.845Z,4.44
2023-04-12T06:39:35.496Z,4.45
2023-04-12T06:42:03.128Z,4.56
2023-04-12T06:44:30.963Z,4.60
2023-04-12T06:46:59.147Z,4.66
2023-04-12T06:49:27.048Z,4.71
2023-04-12T06:51:56.107Z,4.83
2023-04-12T06:54:24.045Z,4.97
2023-04-12T06:56:51.685Z,5.07
2023-04-12T06:59:19.395Z,5.17
2023-04-12T07:01:47.070Z,5.23
2023-04-12T07:04:14.805Z,5.34
2023-04-12T07:06:42.640Z,5.57
2023-04-12T07:09:11.683Z,5.62
2023-04-12T07:11:39.562Z,5.71
2023-04-12T07:14:07.248Z,5.78
2023-04-12T07:16:35.029Z,5.89
2023-04-12T07:19:02.679Z,6.04
2023-04-12T07:21:30.396Z,6.08
2023-04-12T07:23:58.058Z,6.28
2023-04-12T07:26:27.061Z,6.53
2023-04-12T07:28:54.974Z,6.61
2023-04-12T07:31:23.619Z,6.59
2023-04-12T07:33:51.331Z,6.79
2023-04-12T07:36:21.063Z,6.84
2023-04-12T07:38:49.305Z,7.06
2023-04-12T07:41:18.379Z,7.01
2023-04-12T07:43:47.402Z,7.05
2023-04-12T07:46:15.127Z,7.15
2023-04-12T07:48:43.363Z,7.20
2023-04-12T07:51:11.050Z,7.25
2023-04-12T07:53:38.888Z,7.40
2023-04-12T07:56:07.068Z,7.53
2023-04-12T07:58:35.455Z,7.65
2023-04-12T08:01:04.797Z,7.71
2023-04-12T08:03:32.651Z,7.86
2023-04-12T08:06:00.800Z,7.95
2023-04-12T08:08:28.501Z,8.05
2023-04-12T08:10:56.147Z,8.11
2023-04-12T08:13:23.853Z,8.36
2023-04-12T08:15:51.463Z,8.32
2023-04-12T08:18:20.996Z,8.52
2023-04-12T08:20:49.293Z,8.67
2023-04-12T08:23:17.438Z,8.86
2023-04-12T08:25:45.195Z,8.72
2023-04-12T08:28:12.962Z,8.87
2023-04-12T08:30:40.600Z,8.94
2023-04-12T08:33:08.303Z,9.23
2023-04-12T08:35:37.428Z,9.25
2023-04-12T08:38:07.586Z,9.31
2023-04-12T08:40:35.292Z,9.46
2023-04-12T08:43:06.794Z,9.45
2023-04-12T08:45:36.909Z,9.57
2023-04-12T08:48:06.404Z,9.71
2023-04-12T08:50:34.262Z,9.92
2023-04-12T08:53:03.987Z,10.01
2023-04-12T08:55:31.689Z,10.25
2023-04-12T08:58:00.206Z,10.27
2023-04-12T09:00:28.641Z,10.36
2023-04-12T09:02:56.443Z,10.51
2023-04-12T09:05:29.608Z,10.68
2023-04-12T09:07:57.816Z,10.76
2023-04-12T09:10:34.693Z,11.06
2023-04-12T09:13:02.479Z,11.18
2023-04-12T09:15:30.472Z,11.32
2023-04-12T09:18:06.695Z,11.34
2023-04-12T09:20:34.981Z,11.37
2023-04-12T09:23:02.922Z,11.44
2023-04-12T09:25:39.902Z,11.52
2023-04-12T09:28:21.262Z,11.75
2023-04-12T09:30:51.699Z,11.86
2023-04-12T09:33:19.976Z,11.91
2023-04-12T09:35:48.056Z,12.14
2023-04-12T09:38:16.262Z,12.33
2023-04-12T09:40:45.378Z,12.36
2023-04-12T09:43:13.079Z,12.42
2023-04-12T09:45:40.793Z,12.64
2023-04-12T09:48:08.992Z,12.70
2023-04-12T09:50:36.704Z,12.88
2023-04-12T09:53:16.546Z,13.02
2023-04-12T09:55:47.610Z,12.98
2023-04-12T09:58:20.476Z,13.14
2023-04-12T10:00:48.617Z,13.31
2023-04-12T10:03:16.464Z,13.34
2023-04-12T10:05:44.349Z,13.38
2023-04-12T10:08:12.910Z,13.42
2023-04-12T10:10:40.909Z,13.64
2023-04-12T10:13:13.752Z,13.82
2023-04-12T10:15:42.269Z,13.87
2023-04-12T10:18:12.394Z,13.98
2023-04-12T10:20:41.331Z,14.15
2023-04-12T10:23:10.233Z,14.17
2023-04-12T10:25:40.165Z,14.30
2023-04-12T10:28:17.452Z,14.42
2023-04-12T10:30:45.843Z,14.62
2023-04-12T10:33:16.583Z,14.55
2023-04-12T10:35:53.210Z,14.54
2023-04-12T10:38:21.518Z,14.60
2023-04-12T10:41:08.464Z,14.55
2023-04-12T10:43:37.773Z,14.68
2023-04-12T10:46:06.845Z,14.79
2023-04-12T10:48:36.134Z,14.81
2023-04-12T10:51:23.003Z,14.84
2023-04-12T10:53:52.124Z,14.91
2023-04-12T10:56:47.174Z,15.05
2023-04-12T10:59:16.485Z,15.19
2023-04-12T11:02:13.445Z,15.20
2023-04-12T11:05:09.961Z,15.28
2023-04-12T11:07:41.801Z,15.31
2023-04-12T11:10:16.580Z,15.31
2023-04-12T11:12:50.429Z,15.02
2023-04-12T11:15:19.528Z,15.38
2023-04-12T11:17:55.181Z,15.61
2023-04-12T11:20:23.002Z,15.75
2023-04-12T11:22:51.938Z,16.00
2023-04-12T11:25:19.696Z,15.98
2023-04-12T11:27:51.208Z,15.80
2023-04-12T11:30:20.642Z,15.96
2023-04-12T11:32:48.758Z,16.00
2023-04-12T11:35:19.540Z,15.92
2023-04-12T11:37:47.432Z,15.77
2023-04-12T11:40:15.737Z,15.66
2023-04-12T11:42:45.245Z,15.85
2023-04-12T11:45:18.048Z,15.75
2023-04-12T11:47:47.929Z,16.05
2023-04-12T11:50:29.650Z,16.18
2023-04-12T11:53:10.668Z,16.09
2023-04-12T11:55:38.294Z,16.17
2023-04-12T11:58:06.295Z,16.43
2023-04-12T12:00:34.127Z,16.67
2023-04-12T12:03:07.608Z,16.76
2023-04-12T12:05:38.420Z,16.59
2023-04-12T12:08:07.737Z,16.59
2023-04-12T12:10:46.189Z,16.55
2023-04-12T12:13:23.629Z,16.46
2023-04-12T12:15:53.070Z,16.25
2023-04-12T12:18:27.196Z,16.07
2023-04-12T12:20:55.690Z,15.90
2023-04-12T12:23:31.255Z,15.49
2023-04-12T12:26:14.317Z,15.55
2023-04-12T12:28:51.336Z,15.30
2023-04-12T12:31:21.115Z,15.19
2023-04-12T12:33:52.678Z,15.23
2023-04-12T12:36:20.864Z,15.09
2023-04-12T12:38:51.514Z,15.17
2023-04-12T12:41:21.092Z,15.12
2023-04-12T12:43:49.568Z,15.28
2023-04-12T12:46:18.844Z,15.40
2023-04-12T12:48:48.923Z,15.41
2023-04-12T12:51:19.765Z,15.42
2023-04-12T12:53:47.980Z,15.27
2023-04-12T12:56:17.136Z,15.17
2023-04-12T12:58:45.186Z,15.06
2023-04-12T13:01:12.882Z,14.96
2023-04-12T13:03:40.681Z,14.91
2023-04-12T13:06:09.861Z,15.01
2023-04-12T13:08:38.918Z,15.04
2023-04-12T13:11:07.263Z,14.96
2023-04-12T13:13:34.890Z,15.02
2023-04-12T13:16:02.592Z,15.02
2023-04-12T13:18:30.410Z,14.99
2023-04-12T13:20:58.105Z,15.02
2023-04-12T13:23:25.767Z,14.98
2023-04-12T13:25:54.790Z,14.85
2023-04-12T13:28:22.531Z,14.93
2023-04-12T13:30:50.417Z,15.11
2023-04-12T13:33:21.030Z,15.19
2023-04-12T13:35:49.778Z,15.25
2023-04-12T13:38:17.456Z,15.31
2023-04-12T13:40:45.273Z,15.20
2023-04-12T13:43:14.347Z,15.22
2023-04-12T13:45:42.066Z,15.25
2023-04-12T13:48:09.963Z,15.14
2023-04-12T13:50:37.769Z,15.10
2023-04-12T13:53:05.416Z,15.09
2023-04-12T13:55:33.017Z,15.09
2023-04-12T13:58:00.762Z,15.07
2023-04-12T14:00:29.767Z,15.01
2023-04-12T14:02:57.952Z,15.04
2023-04-12T14:05:25.878Z,15.10
2023-04-12T14:07:55.508Z,14.90
2023-04-12T14:10:23.179Z,14.96
2023-04-12T14:12:50.814Z,14.87
2023-04-12T14:15:18.992Z,14.96
2023-04-12T14:17:48.215Z,14.90
2023-04-12T14:20:18.777Z,14.75
2023-04-12T14:22:47.122Z,14.61
2023-04-12T14:25:14.767Z,14.74
2023-04-12T14:27:42.601Z,14.67
2023-04-12T14:30:10.595Z,14.58
2023-04-12T14:32:38.732Z,14.58
2023-04-12T14:35:09.406Z,14.53
2023-04-12T14:37:37.003Z,14.51
2023-04-12T14:40:08.362Z,14.45
2023-04-12T14:42:36.043Z,14.51
2023-04-12T14:45:05.312Z,14.37
2023-04-12T14:47:33.069Z,14.33
2023-04-12T14:50:00.863Z,14.38
2023-04-12T14:52:30.076Z,14.27
2023-04-12T14:54:57.777Z,14.22
2023-04-12T14:57:25.719Z,14.17
2023-04-12T14:59:53.470Z,14.21
2023-04-12T15:02:23.937Z,14.16
2023-04-12T15:04:52.538Z,14.25
2023-04-12T15:07:20.506Z,14.23
2023-04-12T15:09:49.565Z,14.10
2023-04-12T15:12:17.286Z,14.12
2023-04-12T15:14:45.566Z,14.05
2023-04-12T15:17:13.205Z,14.03
2023-04-12T15:19:40.961Z,14.03
2023-04-12T15:22:08.685Z,13.93
2023-04-12T15:24:36.409Z,13.82
2023-04-12T15:27:06.736Z,13.67
2023-04-12T15:29:35.423Z,13.85
2023-04-12T15:32:03.145Z,13.65
2023-04-12T15:34:33.865Z,13.66
2023-04-12T15:37:01.737Z,13.42
2023-04-12T15:39:29.415Z,13.15
2023-04-12T15:41:57.236Z,13.05
2023-04-12T15:44:31.547Z,12.86
2023-04-12T15:47:10.329Z,12.83
2023-04-12T15:49:38.465Z,12.73
2023-04-12T15:52:06.196Z,12.67
2023-04-12T15:54:35.023Z,12.59
2023-04-12T15:57:09.448Z,12.77
2023-04-12T15:59:38.964Z,12.68
2023-04-12T16:02:09.503Z,12.51
2023-04-12T16:04:37.974Z,12.40
2023-04-12T16:07:05.824Z,12.46
2023-04-12T16:09:34.728Z,12.43
2023-04-12T16:12:02.847Z,12.35
2023-04-12T16:14:30.790Z,12.39
2023-04-12T16:16:59.875Z,12.28
2023-04-12T16:19:27.506Z,12.33
2023-04-12T16:21:55.179Z,12.33
2023-04-12T16:24:22.852Z,12.28
2023-04-12T16:26:50.474Z,12.13
2023-04-12T16:29:18.200Z,11.94
2023-04-12T16:31:46.191Z,11.93
2023-04-12T16:34:15.735Z,11.91
2023-04-12T16:36:44.637Z,12.02
2023-04-12T16:39:12.532Z,11.91
2023-04-12T16:41:40.219Z,11.83
2023-04-12T16:44:07.871Z,11.75
2023-04-12T16:46:35.722Z,11.76
2023-04-12T16:49:04.249Z,11.77
2023-04-12T16:51:36.840Z,11.75
2023-04-12T16:54:05.218Z,11.84
2023-04-12T16:56:32.867Z,11.81
2023-04-12T16:59:01.169Z,11.76
2023-04-12T17:01:28.814Z,11.82
2023-04-12T17:03:56.632Z,11.76
2023-04-12T17:06:24.661Z,11.79
2023-04-12T17:08:53.685Z,11.81
2023-04-12T17:11:21.697Z,11.65
2023-04-12T17:13:50.413Z,11.65
2023-04-12T17:16:18.124Z,11.69
2023-04-12T17:18:45.835Z,11.67
2023-04-12T17:21:15.823Z,11.66
2023-04-12T17:23:43.412Z,11.57
2023-04-12T17:26:12.980Z,11.46
2023-04-12T17:28:41.435Z,11.40
2023-04-12T17:31:10.172Z,11.32
2023-04-12T17:33:37.908Z,11.45
2023-04-12T17:36:11.514Z,11.62
2023-04-12T17:38:39.468Z,11.40
2023-04-12T17:41:09.160Z,11.33
2023-04-12T17:43:38.203Z,11.35
2023-04-12T17:46:07.242Z,11.37
2023-04-12T17:48:35.070Z,11.41
2023-04-12T17:51:03.191Z,11.38
2023-04-12T17:53:30.895Z,11.39
2023-04-12T17:55:58.611Z,11.40
2023-04-12T17:58:27.257Z,11.36
2023-04-12T18:00:56.288Z,11.36
2023-04-12T18:03:24.162Z,11.34
2023-04-12T18:05:52.420Z,11.38
2023-04-12T18:08:20.155Z,11.37
2023-04-12T18:10:47.814Z,11.32
2023-04-12T18:13:15.446Z,11.26
2023-04-12T18:15:43.159Z,11.25
2023-04-12T18:18:12.461Z,11.12
2023-04-12T18:20:40.501Z,11.16
2023-04-12T18:23:08.244Z,11.16
2023-04-12T18:25:36.029Z,11.16
2023-04-12T18:28:03.721Z,11.24
2023-04-12T18:30:31.456Z,11.26
2023-04-12T18:33:01.000Z,11.19
2023-04-12T18:35:32.142Z,11.17
2023-04-12T18:37:59.861Z,11.15
2023-04-12T18:40:27.583Z,11.17
2023-04-12T18:42:55.251Z,11.20
2023-04-12T18:45:23.845Z,11.17
2023-04-12T18:47:52.898Z,11.21
2023-04-12T18:50:20.755Z,11.17
2023-04-12T18:52:50.125Z,11.11
2023-04-12T18:55:17.749Z,11.17
2023-04-12T18:57:47.084Z,11.26
2023-04-12T19:00:17.414Z,11.31
2023-04-12T19:02:45.506Z,11.20
2023-04-12T19:05:14.687Z,11.21
2023-04-12T19:07:42.434Z,11.23
2023-04-12T19:10:12.460Z,11.17
2023-04-12T19:12:40.175Z,11.17
2023-04-12T19:15:09.059Z,11.11
2023-04-12T19:17:38.888Z,11.05
2023-04-12T19:20:08.272Z,11.04
2023-04-12T19:22:36.276Z,10.94
2023-04-12T19:25:04.030Z,10.85
2023-04-12T19:27:33.113Z,10.87
2023-04-12T19:30:00.736Z,10.88
2023-04-12T19:32:29.179Z,10.85
2023-04-12T19:34:57.153Z,10.81
2023-04-12T19:37:24.850Z,10.82
2023-04-12T19:39:52.544Z,10.81
2023-04-12T19:42:20.246Z,10.65
2023-04-12T19:44:49.266Z,10.66
2023-04-12T19:47:16.935Z,10.69
2023-04-12T19:49:44.669Z,10.68
2023-04-12T19:52:15.236Z,10.86
2023-04-12T19:54:43.203Z,10.72
2023-04-12T19:57:10.861Z,10.64
2023-04-12T19:59:38.489Z,10.69
2023-04-12T20:02:07.779Z,10.73
2023-04-12T20:04:35.729Z,10.67
2023-04-12T20:07:04.714Z,10.61
2023-04-12T20:09:32.616Z,10.58
2023-04-12T20:12:01.599Z,10.69
2023-04-12T20:14:29.196Z,10.57
2023-04-12T20:16:56.995Z,10.52
2023-04-12T20:19:26.266Z,10.48
2023-04-12T20:22:01.780Z,10.42
2023-04-12T20:24:30.373Z,10.36
2023-04-12T20:26:58.495Z,10.33
2023-04-12T20:29:26.465Z,10.36
2023-04-12T20:31:55.615Z,10.50
2023-04-12T20:34:25.577Z,10.46
2023-04-12T20:36:55.426Z,10.36
2023-04-12T20:39:23.299Z,10.38
2023-04-12T20:41:51.478Z,10.29
2023-04-12T20:44:19.286Z,10.31
2023-04-12T20:46:47.410Z,10.29
2023-04-12T20:49:15.320Z,10.31
2023-04-12T20:51:46.791Z,10.22
2023-04-12T20:54:16.714Z,10.13
2023-04-12T20:56:45.126Z,10.19
2023-04-12T20:59:12.786Z,10.16
2023-04-12T21:01:40.501Z,10.21
2023-04-12T21:04:08.505Z,10.26
2023-04-12T21:06:37.427Z,10.21
2023-04-12T21:09:05.760Z,10.18
2023-04-12T21:11:34.800Z,10.18
2023-04-12T21:14:02.463Z,10.10
2023-04-12T21:16:30.747Z,10.06
2023-04-12T21:18:59.397Z,10.02
2023-04-12T21:21:28.450Z,9.89
2023-04-12T21:23:56.143Z,9.96
2023-04-12T21:26:24.286Z,10.05
2023-04-12T21:28:53.319Z,9.87
2023-04-12T21:31:21.833Z,9.84
2023-04-12T21:33:50.436Z,9.81
2023-04-12T21:36:18.850Z,9.79
2023-04-12T21:38:46.554Z,9.80
2023-04-12T21:41:15.313Z,9.75
2023-04-12T21:43:42.970Z,9.73
2023-04-12T21:46:12.864Z,9.78
2023-04-12T21:48:40.729Z,9.69
2023-04-12T21:51:08.565Z,9.59
2023-04-12T21:53:36.242Z,9.59
2023-04-12T21:56:03.872Z,9.60
2023-04-12T21:58:34.002Z,9.61
2023-04-12T22:01:01.937Z,9.64
2023-04-12T22:03:31.126Z,9.65
2023-04-12T22:06:04.736Z,9.54
2023-04-12T22:08:34.066Z,9.49
2023-04-12T22:11:01.989Z,9.58
2023-04-12T22:13:30.648Z,9.58
2023-04-12T22:15:58.296Z,9.46
2023-04-12T22:18:26.009Z,9.47
2023-04-12T22:20:55.275Z,9.44
2023-04-12T22:23:23.148Z,9.53
2023-04-12T22:25:50.802Z,9.46
2023-04-12T22:28:18.480Z,9.40
2023-04-12T22:30:46.671Z,9.41
2023-04-12T22:33:15.870Z,9.39
2023-04-12T22:35:43.987Z,9.43
2023-04-12T22:38:14.664Z,9.51
2023-04-12T22:40:42.185Z,9.42
2023-04-12T22:43:17.893Z,9.49
2023-04-12T22:45:46.942Z,9.50
2023-04-12T22:48:15.896Z,9.44
2023-04-12T22:50:44.935Z,9.37
2023-04-12T22:53:13.978Z,9.42
2023-04-12T22:55:42.171Z,9.47
2023-04-12T22:58:09.995Z,9.46
2023-04-12T23:00:39.296Z,9.48
2023-04-12T23:03:10.685Z,9.51
2023-04-12T23:05:38.904Z,9.46
2023-04-12T23:08:06.569Z,9.52
2023-04-12T23:10:35.677Z,9.57
2023-04-12T23:13:03.354Z,9.53
2023-04-12T23:15:31.650Z,9.41
2023-04-12T23:18:01.529Z,9.43
2023-04-12T23:20:30.114Z,9.37
2023-04-12T23:22:58.513Z,9.33
2023-04-12T23:25:37.655Z,9.31
2023-04-12T23:28:12.545Z,9.27
2023-04-12T23:30:42.484Z,9.32
2023-04-12T23:33:11.941Z,9.27
2023-04-12T23:35:41.004Z,9.32
2023-04-12T23:38:09.875Z,9.35
2023-04-12T23:40:37.962Z,9.31
2023-04-12T23:43:08.504Z,9.27
2023-04-12T23:45:35.956Z,9.21
2023-04-12T23:48:03.643Z,9.22
2023-04-12T23:50:32.142Z,9.26
2023-04-12T23:52:59.863Z,9.16
2023-04-12T23:55:27.542Z,9.16
2023-04-12T23:57:55.261Z,9.25
